Time;durP1;ratioP1;P1;durP2;ratioP2;P2;SDS_P1;SDS_P2;PMS_P1;PMS_P2;Temp;Humidity;BMP_temperature;BMP_pressure;BME280_temperature;BME280_humidity;BME280_pressure;Samples;Min_cycle;Max_cycle;Signal;HPM_P1;HPM_P2
2023/08/09 00:06:12;;;;;;;3.35;2.45;;;11.50;99.90;;;;;;25587405;23;20005;-44
2023/08/09 00:16:13;;;;;;;4.15;2.50;;;11.60;99.90;;;;;;25594254;23;20016;-46
2023/08/09 00:26:15;;;;;;;3.63;2.70;;;11.70;99.90;;;;;;25595702;23;20009;-44
2023/08/09 00:36:17;;;;;;;3.80;2.72;;;11.80;99.90;;;;;;25595094;23;20071;-53
2023/08/09 00:46:21;;;;;;;3.22;2.35;;;11.80;99.90;;;;;;25568798;23;20499;-45
2023/08/09 00:56:23;;;;;;;4.45;2.92;;;11.80;99.90;;;;;;25569583;23;20012;-52
2023/08/09 01:06:33;;;;;;;4.28;2.70;;;12.00;99.90;;;;;;25595492;23;20055;-44
2023/08/09 01:16:37;;;;;;;3.97;2.40;;;12.30;99.90;;;;;;25634903;23;20028;-52
2023/08/09 01:26:39;;;;;;;3.95;2.30;;;12.40;99.90;;;;;;25566296;23;20332;-53
2023/08/09 01:36:45;;;;;;;4.63;2.80;;;12.40;99.90;;;;;;25566076;23;20087;-50
2023/08/09 01:46:48;;;;;;;6.13;3.15;;;12.40;99.90;;;;;;25592171;23;20005;-49
2023/08/09 01:56:49;;;;;;;5.88;3.22;;;12.30;99.90;;;;;;25592263;23;20005;-51
2023/08/09 02:06:51;;;;;;;6.57;2.47;;;12.30;99.90;;;;;;25565157;23;20016;-50
2023/08/09 02:16:53;;;;;;;3.08;2.15;;;12.40;99.90;;;;;;25591386;23;20059;-51
2023/08/09 02:26:55;;;;;;;4.78;2.20;;;12.40;99.90;;;;;;25590774;23;20005;-50
2023/08/09 02:36:57;;;;;;;4.80;2.53;;;12.30;99.90;;;;;;25590529;23;20009;-52
2023/08/09 02:46:59;;;;;;;3.65;2.65;;;12.30;99.90;;;;;;25589983;23;20009;-51
2023/08/09 02:57:01;;;;;;;4.82;2.55;;;12.20;99.90;;;;;;25589832;23;20008;-53
2023/08/09 03:07:03;;;;;;;5.35;2.92;;;12.20;99.90;;;;;;25565221;23;20001;-48
2023/08/09 03:17:05;;;;;;;4.63;2.67;;;11.90;99.90;;;;;;25590404;23;20071;-51
2023/08/09 03:27:07;;;;;;;8.43;3.10;;;11.70;99.90;;;;;;25563465;23;20005;-52
2023/08/09 03:37:10;;;;;;;5.95;2.92;;;11.70;99.90;;;;;;25562637;23;20020;-52
2023/08/09 03:47:12;;;;;;;6.10;2.92;;;11.70;99.90;;;;;;25587658;23;20009;-52
2023/08/09 03:57:14;;;;;;;5.40;2.97;;;11.70;99.90;;;;;;25561182;23;20333;-46
2023/08/09 04:07:16;;;;;;;4.35;2.88;;;11.70;99.90;;;;;;25587576;23;20012;-47
2023/08/09 04:17:18;;;;;;;4.38;2.78;;;11.70;99.90;;;;;;25587650;23;20009;-54
2023/08/09 04:27:19;;;;;;;4.20;3.10;;;11.70;99.90;;;;;;25562035;23;20044;-44
2023/08/09 04:37:22;;;;;;;7.20;3.00;;;11.70;99.90;;;;;;25587108;23;20028;-45
2023/08/09 04:47:24;;;;;;;3.28;2.40;;;11.60;99.90;;;;;;25586551;23;20009;-45
2023/08/09 04:57:27;;;;;;;4.40;2.50;;;11.60;99.90;;;;;;25563123;23;20444;-46
2023/08/09 05:07:29;;;;;;;5.28;2.60;;;11.70;99.90;;;;;;25594001;23;20059;-45
2023/08/09 05:17:31;;;;;;;3.40;1.77;;;11.90;99.90;;;;;;25593688;23;20012;-44
2023/08/09 05:27:33;;;;;;;6.47;1.80;;;12.30;99.90;;;;;;25593178;23;20376;-51
2023/08/09 05:37:35;;;;;;;4.88;1.92;;;12.70;99.90;;;;;;25592867;23;20016;-43
2023/08/09 05:47:37;;;;;;;4.25;1.98;;;13.10;99.90;;;;;;25592414;23;20437;-54
2023/08/09 05:57:38;;;;;;;5.57;2.10;;;13.50;99.90;;;;;;25592048;23;20021;-48
2023/08/09 06:07:40;;;;;;;2.85;1.52;;;13.80;99.90;;;;;;25591221;23;20039;-55
2023/08/09 06:17:42;;;;;;;3.50;1.65;;;14.20;99.90;;;;;;25591355;23;20032;-50
2023/08/09 06:27:44;;;;;;;2.92;1.10;;;14.70;99.90;;;;;;25590598;23;20012;-53
2023/08/09 06:37:48;;;;;;;2.28;0.90;;;15.20;99.90;;;;;;25591566;23;20013;-53
2023/08/09 06:47:50;;;;;;;3.97;1.20;;;16.00;99.90;;;;;;25563383;23;20009;-50
2023/08/09 06:57:52;;;;;;;2.17;1.05;;;16.10;99.90;;;;;;25589433;23;20348;-45
2023/08/09 07:07:54;;;;;;;1.00;0.60;;;16.00;99.90;;;;;;25591452;23;20071;-53
2023/08/09 07:17:56;;;;;;;1.27;0.68;;;16.70;99.90;;;;;;25588823;23;20480;-52
2023/08/09 07:27:58;;;;;;;2.05;0.70;;;18.10;99.90;;;;;;25588079;23;20320;-54
2023/08/09 07:38:01;;;;;;;2.28;0.93;;;18.10;99.90;;;;;;25561788;23;20013;-53
2023/08/09 07:48:03;;;;;;;2.05;0.80;;;18.60;99.90;;;;;;25587806;23;20436;-52
2023/08/09 07:58:06;;;;;;;1.80;1.00;;;18.90;99.90;;;;;;25587497;23;20029;-50
2023/08/09 08:08:08;;;;;;;2.83;0.88;;;18.50;99.90;;;;;;25588165;23;20012;-50
2023/08/09 08:18:10;;;;;;;1.35;0.63;;;18.50;99.90;;;;;;25587436;23;20032;-43
2023/08/09 08:28:12;;;;;;;2.92;1.13;;;18.40;99.90;;;;;;25587034;23;20425;-52
2023/08/09 08:38:14;;;;;;;2.80;1.23;;;17.90;99.90;;;;;;25594919;23;20067;-44
2023/08/09 08:48:19;;;;;;;3.05;1.00;;;17.80;99.90;;;;;;25596256;23;20009;-51
2023/08/09 08:58:21;;;;;;;1.77;1.00;;;18.40;99.90;;;;;;25568358;23;20008;-53
2023/08/09 09:08:24;;;;;;;2.17;1.20;;;19.10;99.90;;;;;;25593815;23;20005;-51
2023/08/09 09:18:26;;;;;;;2.67;1.50;;;19.40;99.90;;;;;;25595295;23;20490;-52
2023/08/09 09:28:29;;;;;;;2.92;1.27;;;19.50;99.90;;;;;;25593230;23;20503;-43
2023/08/09 09:38:33;;;;;;;2.75;0.90;;;19.70;99.90;;;;;;25592643;23;20392;-55
2023/08/09 09:48:35;;;;;;;4.53;1.60;;;20.20;99.90;;;;;;25593265;23;20013;-55
2023/08/09 09:58:37;;;;;;;2.75;1.50;;;20.50;99.90;;;;;;25565760;23;20503;-52
2023/08/09 10:08:41;;;;;;;2.83;1.50;;;20.30;99.90;;;;;;25591530;23;20060;-54
2023/08/09 10:18:58;;;;;;;4.07;1.60;;;20.30;99.90;;;;;;25591127;23;20441;-48
2023/08/09 10:29:05;;;;;;;2.53;1.70;;;20.50;99.90;;;;;;25632300;23;20012;-54
2023/08/09 10:39:16;;;;;;;1.85;1.50;;;21.00;99.90;;;;;;25611589;23;20017;-57
2023/08/09 10:49:18;;;;;;;2.45;1.30;;;21.00;99.90;;;;;;25563498;23;20057;-58
2023/08/09 10:59:25;;;;;;;2.50;1.73;;;21.70;99.90;;;;;;25589698;23;20067;-58
2023/08/09 11:09:27;;;;;;;2.78;1.67;;;21.90;99.90;;;;;;25627832;23;20012;-47
2023/08/09 11:19:28;;;;;;;4.80;1.63;;;22.50;99.90;;;;;;25588118;23;20008;-59
2023/08/09 11:29:33;;;;;;;4.25;1.80;;;23.20;99.90;;;;;;25587352;23;20005;-59
2023/08/09 11:39:35;;;;;;;2.70;1.17;;;24.10;99.90;;;;;;25588143;23;20108;-59
2023/08/09 11:49:37;;;;;;;2.53;1.50;;;24.30;99.90;;;;;;25586658;23;20344;-59
2023/08/09 11:59:40;;;;;;;3.00;1.58;;;23.70;99.90;;;;;;25588076;23;20005;-59
2023/08/09 12:09:42;;;;;;;4.07;1.80;;;24.80;99.90;;;;;;25594023;23;20004;-58
2023/08/09 12:19:44;;;;;;;5.90;2.22;;;24.60;99.90;;;;;;25599891;23;20001;-56
2023/08/09 12:29:47;;;;;;;4.20;1.60;;;24.40;99.90;;;;;;25599964;23;20001;-59
2023/08/09 12:39:49;;;;;;;3.85;1.30;;;24.20;99.90;;;;;;25600351;23;20017;-59
2023/08/09 12:49:51;;;;;;;5.22;2.10;;;25.40;99.90;;;;;;25599126;23;20009;-59
2023/08/09 12:59:53;;;;;;;5.10;2.08;;;25.40;98.30;;;;;;25599648;23;20009;-57
2023/08/09 13:09:55;;;;;;;3.85;2.03;;;24.10;99.00;;;;;;25600261;23;20420;-49
2023/08/09 13:19:57;;;;;;;5.47;2.22;;;22.20;99.90;;;;;;25595060;23;20001;-56
2023/08/09 13:30:02;;;;;;;7.22;2.03;;;21.80;99.90;;;;;;25591790;23;20005;-58
2023/08/09 13:40:14;;;;;;;4.65;2.58;;;23.00;99.90;;;;;;25590856;23;20028;-47
2023/08/09 13:50:16;;;;;;;6.40;2.50;;;24.00;99.90;;;;;;25630376;23;20001;-58
2023/08/09 14:00:19;;;;;;;5.63;2.50;;;24.20;99.90;;;;;;25589666;23;20048;-58
2023/08/09 14:10:21;;;;;;;3.60;2.67;;;23.50;99.90;;;;;;25589128;23;20064;-55
2023/08/09 14:20:22;;;;;;;3.90;2.97;;;23.00;99.90;;;;;;25590588;23;20008;-56
2023/08/09 14:30:24;;;;;;;3.90;2.92;;;22.20;99.90;;;;;;25588967;23;20333;-57
2023/08/09 14:40:27;;;;;;;5.40;2.92;;;22.10;99.90;;;;;;25587929;23;20071;-49
2023/08/09 14:50:32;;;;;;;9.23;3.92;;;22.40;99.90;;;;;;25586653;23;20012;-54
2023/08/09 15:00:34;;;;;;;7.40;3.20;;;22.30;99.90;;;;;;25589962;23;20032;-55
2023/08/09 15:10:37;;;;;;;8.02;3.63;;;21.80;99.90;;;;;;25588484;23;20068;-55
2023/08/09 15:20:39;;;;;;;6.15;2.83;;;21.20;99.90;;;;;;25587968;23;20292;-47
2023/08/09 15:30:41;;;;;;;6.93;3.17;;;21.30;99.90;;;;;;25587268;23;20060;-47
2023/08/09 15:40:43;;;;;;;4.68;3.10;;;20.90;99.90;;;;;;25586339;23;20024;-53
2023/08/09 15:50:45;;;;;;;6.90;3.35;;;20.50;99.90;;;;;;25587116;23;20016;-56
2023/08/09 16:00:47;;;;;;;4.80;3.10;;;20.10;99.90;;;;;;25586668;23;20072;-46
2023/08/09 16:10:49;;;;;;;7.43;3.22;;;20.20;99.90;;;;;;25586307;23;20401;-55
2023/08/09 16:20:52;;;;;;;7.20;3.70;;;20.20;99.90;;;;;;25585380;23;20005;-56
2023/08/09 16:30:53;;;;;;;8.35;3.03;;;20.10;99.90;;;;;;25585535;23;20429;-55
2023/08/09 16:40:55;;;;;;;4.75;2.95;;;19.70;99.90;;;;;;25586382;23;20079;-54
2023/08/09 16:50:58;;;;;;;8.65;3.83;;;19.40;99.90;;;;;;25585734;23;20009;-56
2023/08/09 17:01:00;;;;;;;7.45;3.75;;;19.10;99.90;;;;;;25593428;23;20005;-54
2023/08/09 17:11:02;;;;;;;5.60;3.25;;;18.80;99.90;;;;;;25592617;23;20009;-50
2023/08/09 17:21:05;;;;;;;4.30;3.55;;;18.40;99.90;;;;;;25592111;23;20274;-54
2023/08/09 17:31:07;;;;;;;4.90;3.45;;;18.10;99.90;;;;;;25592014;23;20511;-51
2023/08/09 17:41:09;;;;;;;7.30;3.78;;;17.80;99.90;;;;;;25590495;23;20021;-52
2023/08/09 17:51:11;;;;;;;6.93;4.00;;;17.40;99.90;;;;;;25591054;23;20009;-48
2023/08/09 18:01:13;;;;;;;6.63;4.57;;;16.60;99.90;;;;;;25591508;23;20009;-51
2023/08/09 18:11:15;;;;;;;7.70;5.50;;;15.80;99.90;;;;;;25590294;23;20009;-50
2023/08/09 18:21:16;;;;;;;10.75;7.97;;;14.90;99.90;;;;;;25588810;23;20009;-51
2023/08/09 18:31:21;;;;;;;16.85;11.75;;;14.50;99.90;;;;;;25591356;23;20005;-51
2023/08/09 18:41:23;;;;;;;22.20;14.15;;;14.00;99.90;;;;;;25589035;23;20384;-50
2023/08/09 18:51:25;;;;;;;13.52;9.60;;;13.70;99.90;;;;;;25589007;23;20028;-42
2023/08/09 19:01:27;;;;;;;18.77;10.35;;;13.40;99.90;;;;;;25590602;23;20013;-47
2023/08/09 19:11:29;;;;;;;35.50;24.17;;;13.10;99.90;;;;;;25584625;23;20013;-42
2023/08/09 19:21:31;;;;;;;13.60;10.07;;;13.00;99.90;;;;;;25586314;23;20005;-49
2023/08/09 19:31:33;;;;;;;16.35;10.07;;;12.90;99.90;;;;;;25586589;23;20005;-47
2023/08/09 19:41:36;;;;;;;11.18;8.38;;;13.00;99.90;;;;;;25586499;23;20021;-49
2023/08/09 19:51:38;;;;;;;12.98;8.63;;;13.00;99.90;;;;;;25586116;23;20001;-49
2023/08/09 20:01:40;;;;;;;12.00;8.60;;;12.90;99.90;;;;;;25587427;23;20436;-46
2023/08/09 20:11:44;;;;;;;12.75;8.23;;;12.70;99.90;;;;;;25585311;23;20024;-41
2023/08/09 20:21:46;;;;;;;10.48;8.60;;;12.60;99.90;;;;;;25585226;23;20012;-44
2023/08/09 20:31:48;;;;;;;11.07;8.98;;;12.50;99.90;;;;;;25590751;23;20005;-44
2023/08/09 20:41:50;;;;;;;10.68;9.55;;;12.30;99.90;;;;;;25592546;23;20016;-49
2023/08/09 20:51:52;;;;;;;12.05;8.90;;;12.20;99.90;;;;;;25592461;23;20012;-50
2023/08/09 21:01:54;;;;;;;14.00;9.07;;;12.50;99.90;;;;;;25593571;23;20005;-47
2023/08/09 21:11:56;;;;;;;13.38;8.82;;;12.60;99.90;;;;;;25591454;23;20039;-52
2023/08/09 21:21:58;;;;;;;12.63;9.98;;;12.50;99.90;;;;;;25592519;23;20059;-42
2023/08/09 21:32:00;;;;;;;14.90;10.73;;;12.30;99.90;;;;;;25591188;23;20012;-50
2023/08/09 21:42:02;;;;;;;14.10;11.57;;;12.20;99.90;;;;;;25590461;23;20009;-51
2023/08/09 21:52:04;;;;;;;15.00;12.18;;;12.10;99.90;;;;;;25589161;23;20084;-49
2023/08/09 22:02:06;;;;;;;15.55;13.43;;;12.00;99.90;;;;;;25592406;23;20011;-46
2023/08/09 22:12:08;;;;;;;14.05;12.27;;;12.00;99.90;;;;;;25564352;23;20470;-47
2023/08/09 22:22:10;;;;;;;19.40;14.07;;;12.10;99.90;;;;;;25589895;23;20017;-49
2023/08/09 22:32:12;;;;;;;18.30;14.15;;;12.10;99.90;;;;;;25590008;23;20028;-48
2023/08/09 22:42:14;;;;;;;15.25;13.60;;;12.10;99.90;;;;;;25590181;23;20009;-43
2023/08/09 22:52:16;;;;;;;16.60;14.43;;;12.20;99.90;;;;;;25588573;23;20063;-47
2023/08/09 23:02:18;;;;;;;17.08;15.27;;;12.10;99.90;;;;;;25563745;23;20031;-48
2023/08/09 23:12:19;;;;;;;17.30;15.05;;;12.10;99.90;;;;;;25587966;23;20337;-50
2023/08/09 23:22:21;;;;;;;17.52;15.15;;;12.20;99.90;;;;;;25587544;23;20012;-50
2023/08/09 23:32:23;;;;;;;18.52;14.38;;;12.30;99.90;;;;;;25587666;23;20001;-50
2023/08/09 23:42:25;;;;;;;17.05;14.32;;;12.60;99.90;;;;;;25587380;23;20013;-48
2023/08/09 23:52:27;;;;;;;16.27;12.50;;;12.70;99.90;;;;;;25586934;23;20005;-49
